Time;durP1;ratioP1;P1;durP2;ratioP2;P2;SDS_P1;SDS_P2;PMS_P1;PMS_P2;Temp;Humidity;BMP_temperature;BMP_pressure;BME280_temperature;BME280_humidity;BME280_pressure;Samples;Min_cycle;Max_cycle;Signal;HPM_P1;HPM_P2
2023/06/08 00:02:25;;;;;;;17.57;11.83;;;16.50;99.90;;;;;;5114909;27;20224;-43
2023/06/08 00:04:52;;;;;;;14.40;12.00;;;16.50;99.90;;;;;;5113468;28;20743;-42
2023/06/08 00:07:18;;;;;;;18.27;12.67;;;16.40;99.90;;;;;;5114739;28;20220;-44
2023/06/08 00:09:45;;;;;;;16.57;11.70;;;16.40;99.90;;;;;;5114588;28;20178;-44
2023/06/08 00:12:11;;;;;;;16.23;11.03;;;16.40;99.90;;;;;;5114732;28;20182;-43
2023/06/08 00:14:38;;;;;;;20.10;11.13;;;16.40;99.90;;;;;;5114812;28;20232;-44
2023/06/08 00:17:04;;;;;;;12.47;10.30;;;16.40;99.90;;;;;;5114780;28;20214;-43
2023/06/08 00:19:31;;;;;;;13.47;10.27;;;16.30;99.90;;;;;;5114496;28;20171;-43
2023/06/08 00:21:58;;;;;;;17.23;10.57;;;16.30;99.90;;;;;;5114376;28;20685;-43
2023/06/08 00:24:25;;;;;;;15.40;10.10;;;16.30;99.90;;;;;;5114324;28;20209;-44
2023/06/08 00:26:51;;;;;;;14.93;9.50;;;16.30;99.90;;;;;;5114445;28;20163;-42
2023/06/08 00:29:17;;;;;;;16.67;9.57;;;16.20;99.90;;;;;;5114394;28;20250;-44
2023/06/08 00:31:43;;;;;;;16.47;9.17;;;16.20;99.90;;;;;;5114298;28;20261;-43
2023/06/08 00:34:08;;;;;;;16.13;9.00;;;16.20;99.90;;;;;;5114453;28;20198;-44
2023/06/08 00:36:34;;;;;;;14.70;8.50;;;16.20;99.90;;;;;;5114371;28;20570;-44
2023/06/08 00:38:59;;;;;;;15.73;8.83;;;16.20;99.90;;;;;;5114174;28;20194;-42
2023/06/08 00:41:25;;;;;;;11.90;7.53;;;16.20;99.90;;;;;;5114100;28;20197;-43
2023/06/08 00:43:51;;;;;;;18.00;8.63;;;16.20;99.90;;;;;;5114106;28;20674;-42
2023/06/08 00:46:17;;;;;;;16.27;8.10;;;16.20;99.90;;;;;;5114130;28;20205;-44
2023/06/08 00:48:43;;;;;;;15.00;8.47;;;16.20;99.90;;;;;;5114277;28;20551;-44
2023/06/08 00:51:11;;;;;;;13.73;8.73;;;16.20;99.90;;;;;;5114313;28;20205;-42
2023/06/08 00:53:37;;;;;;;14.90;8.03;;;16.20;99.90;;;;;;5114178;28;20217;-42
2023/06/08 00:56:03;;;;;;;15.43;8.03;;;16.20;99.90;;;;;;5113957;28;20243;-44
2023/06/08 00:58:30;;;;;;;16.20;7.83;;;16.20;99.90;;;;;;5114990;28;20232;-45
2023/06/08 01:00:59;;;;;;;11.73;7.90;;;16.10;99.90;;;;;;5113766;28;20291;-43
2023/06/08 01:03:33;;;;;;;15.23;7.73;;;16.10;99.90;;;;;;5113904;28;20225;-41
2023/06/08 01:06:00;;;;;;;10.50;7.63;;;16.10;99.90;;;;;;5114148;28;20167;-42
2023/06/08 01:08:47;;;;;;;12.23;8.23;;;16.10;99.90;;;;;;5113772;28;20176;-42
2023/06/08 01:11:27;;;;;;;14.80;7.77;;;16.10;99.90;;;;;;5114021;28;20218;-42
2023/06/08 01:14:33;;;;;;;12.93;8.73;;;16.00;99.90;;;;;;5113715;28;20228;-42
2023/06/08 01:17:02;;;;;;;11.97;7.60;;;16.00;99.90;;;;;;5051259;28;20187;-45
2023/06/08 01:19:56;;;;;;;15.67;8.10;;;16.00;99.90;;;;;;5102213;28;20190;-42
2023/06/08 01:22:34;;;;;;;15.13;8.23;;;15.90;99.90;;;;;;5118126;28;20257;-43
2023/06/08 01:25:03;;;;;;;14.13;8.13;;;15.90;99.90;;;;;;5117873;28;20197;-45
2023/06/08 01:27:37;;;;;;;14.17;7.93;;;15.90;99.90;;;;;;5117866;28;20188;-44
2023/06/08 01:30:06;;;;;;;13.13;8.70;;;15.90;99.90;;;;;;5118102;28;20171;-43
2023/06/08 01:32:33;;;;;;;16.20;8.43;;;15.90;99.90;;;;;;5117993;28;20272;-43
2023/06/08 01:34:59;;;;;;;14.20;8.13;;;15.90;99.90;;;;;;5117645;28;20634;-41
2023/06/08 01:37:33;;;;;;;13.47;7.57;;;15.90;99.90;;;;;;5117695;28;20200;-44
2023/06/08 01:40:16;;;;;;;14.97;8.07;;;15.90;99.90;;;;;;5117766;28;20245;-44
2023/06/08 01:42:45;;;;;;;13.70;8.30;;;15.80;99.90;;;;;;5117933;28;20177;-43
2023/06/08 01:45:20;;;;;;;14.00;8.70;;;15.80;99.90;;;;;;5117457;28;20193;-42
2023/06/08 01:48:03;;;;;;;17.53;8.57;;;15.80;99.90;;;;;;5117446;28;20170;-43
2023/06/08 01:50:29;;;;;;;11.07;7.00;;;15.80;99.90;;;;;;5117758;28;20180;-43
2023/06/08 01:52:56;;;;;;;13.03;8.07;;;15.70;99.90;;;;;;5117623;28;20206;-44
2023/06/08 01:55:27;;;;;;;14.63;7.97;;;15.70;99.90;;;;;;5117587;28;20190;-44
2023/06/08 01:57:53;;;;;;;17.87;8.90;;;15.70;99.90;;;;;;5117748;28;20186;-43
2023/06/08 02:00:20;;;;;;;12.23;7.87;;;15.70;99.90;;;;;;5117739;28;20265;-43
2023/06/08 02:02:45;;;;;;;13.47;7.97;;;15.70;99.90;;;;;;5118269;28;20261;-41
2023/06/08 02:05:13;;;;;;;20.67;8.47;;;15.70;99.90;;;;;;5117726;28;20272;-43
2023/06/08 02:07:40;;;;;;;12.40;8.13;;;15.60;99.90;;;;;;5117375;28;20181;-43
2023/06/08 02:10:07;;;;;;;15.03;8.40;;;15.60;99.90;;;;;;5117365;28;20182;-43
2023/06/08 02:12:33;;;;;;;15.73;8.60;;;15.60;99.90;;;;;;5116982;28;20200;-43
2023/06/08 02:14:58;;;;;;;16.43;8.13;;;15.50;99.90;;;;;;5117003;28;20198;-43
2023/06/08 02:17:27;;;;;;;16.80;8.57;;;15.50;99.90;;;;;;5116949;28;20174;-42
2023/06/08 02:19:56;;;;;;;15.57;7.60;;;15.40;99.90;;;;;;5117344;28;20527;-44
2023/06/08 02:22:22;;;;;;;18.53;8.37;;;15.40;99.90;;;;;;5117178;28;20182;-43
2023/06/08 02:24:49;;;;;;;12.03;8.53;;;15.40;99.90;;;;;;5116795;28;20198;-43
2023/06/08 02:27:15;;;;;;;16.93;8.47;;;15.30;99.90;;;;;;5115444;28;20190;-43
2023/06/08 02:29:41;;;;;;;17.63;8.30;;;15.30;99.90;;;;;;5116748;28;20549;-43
2023/06/08 02:32:08;;;;;;;16.40;8.70;;;15.30;99.90;;;;;;5117111;28;20191;-43
2023/06/08 02:34:36;;;;;;;16.50;8.43;;;15.20;99.90;;;;;;5117525;28;20201;-41
2023/06/08 02:37:02;;;;;;;16.90;8.73;;;15.20;99.90;;;;;;5117402;28;20194;-43
2023/06/08 02:39:28;;;;;;;15.50;8.20;;;15.20;99.90;;;;;;5117779;28;20182;-41
2023/06/08 02:41:53;;;;;;;16.93;8.50;;;15.10;99.90;;;;;;5117779;28;20198;-42
2023/06/08 02:44:19;;;;;;;13.70;8.27;;;15.10;99.90;;;;;;5116369;28;20198;-44
2023/06/08 02:46:45;;;;;;;16.67;9.10;;;15.00;99.90;;;;;;5116716;28;20231;-41
2023/06/08 02:49:10;;;;;;;13.87;8.40;;;15.00;99.90;;;;;;5116626;28;20182;-44
2023/06/08 02:51:36;;;;;;;16.63;8.83;;;15.00;99.90;;;;;;5116319;28;20339;-41
2023/06/08 02:54:02;;;;;;;20.30;9.00;;;14.90;99.90;;;;;;5116461;28;20205;-43
2023/06/08 02:56:28;;;;;;;12.40;7.57;;;15.00;99.90;;;;;;5116481;28;20186;-42
2023/06/08 02:58:54;;;;;;;18.33;8.73;;;15.00;99.90;;;;;;5116134;28;20661;-45
2023/06/08 03:01:20;;;;;;;21.03;9.10;;;14.90;99.90;;;;;;5116451;28;20259;-44
2023/06/08 03:03:47;;;;;;;14.93;8.10;;;14.90;99.90;;;;;;5116272;28;20209;-44
2023/06/08 03:06:17;;;;;;;11.83;7.80;;;14.90;99.90;;;;;;5116208;28;20278;-44
2023/06/08 03:08:46;;;;;;;18.40;9.37;;;14.90;99.90;;;;;;5116475;28;20178;-43
2023/06/08 03:11:12;;;;;;;12.80;8.20;;;14.90;99.90;;;;;;5116160;28;20188;-44
2023/06/08 03:13:38;;;;;;;19.37;8.83;;;14.80;99.90;;;;;;5116029;28;20198;-42
2023/06/08 03:16:04;;;;;;;15.03;8.40;;;14.80;99.90;;;;;;5116078;28;20265;-44
2023/06/08 03:18:29;;;;;;;18.13;9.17;;;14.80;99.90;;;;;;5115901;28;20182;-42
2023/06/08 03:20:57;;;;;;;17.63;9.27;;;14.80;99.90;;;;;;5116016;28;20202;-44
2023/06/08 03:23:22;;;;;;;17.63;8.90;;;14.80;99.90;;;;;;5115899;28;20273;-43
2023/06/08 03:25:49;;;;;;;15.57;9.23;;;14.80;99.90;;;;;;5114639;28;20220;-41
2023/06/08 03:28:16;;;;;;;13.90;8.53;;;14.80;99.90;;;;;;5115825;28;20179;-44
2023/06/08 03:30:41;;;;;;;19.97;9.57;;;14.80;99.90;;;;;;5115790;28;20189;-44
2023/06/08 03:33:07;;;;;;;15.63;8.70;;;14.80;99.90;;;;;;5115665;28;20182;-42
2023/06/08 03:35:33;;;;;;;14.57;8.93;;;14.70;99.90;;;;;;5115766;28;20178;-44
2023/06/08 03:37:58;;;;;;;19.73;8.87;;;14.80;99.90;;;;;;5116076;28;20231;-44
2023/06/08 03:40:24;;;;;;;15.80;8.83;;;14.70;99.90;;;;;;5115908;28;20202;-43
2023/06/08 03:42:50;;;;;;;13.53;8.97;;;14.80;99.90;;;;;;5115127;28;20170;-42
2023/06/08 03:45:17;;;;;;;19.90;9.20;;;14.80;99.90;;;;;;5115280;28;20197;-43
2023/06/08 03:47:43;;;;;;;15.27;9.50;;;14.80;99.90;;;;;;5115322;28;20181;-43
2023/06/08 03:50:11;;;;;;;12.60;9.00;;;14.80;99.90;;;;;;5115655;28;20174;-42
2023/06/08 03:52:38;;;;;;;13.97;8.63;;;14.80;99.90;;;;;;5115526;28;20190;-42
2023/06/08 03:55:05;;;;;;;14.67;9.00;;;14.80;99.90;;;;;;5115090;28;20193;-42
2023/06/08 03:57:31;;;;;;;17.07;8.73;;;14.80;99.90;;;;;;5113916;28;20183;-42
2023/06/08 03:59:56;;;;;;;21.63;8.73;;;14.80;99.90;;;;;;5113701;28;20235;-41
2023/06/08 04:02:22;;;;;;;14.67;8.70;;;14.80;99.90;;;;;;5115318;28;20214;-43
2023/06/08 04:04:48;;;;;;;17.43;9.03;;;14.80;99.90;;;;;;5114937;28;20194;-42
2023/06/08 04:07:13;;;;;;;14.30;8.27;;;14.80;99.90;;;;;;5114897;28;20186;-40
2023/06/08 04:09:39;;;;;;;13.33;8.07;;;14.90;99.90;;;;;;5114888;28;20230;-42
2023/06/08 04:12:05;;;;;;;17.50;9.17;;;14.90;99.90;;;;;;5115014;28;20191;-42
2023/06/08 04:14:31;;;;;;;17.63;8.00;;;14.90;99.90;;;;;;5114654;28;20197;-42
2023/06/08 04:16:56;;;;;;;16.57;8.43;;;14.80;99.90;;;;;;5114974;28;20182;-44
2023/06/08 04:19:22;;;;;;;17.37;8.87;;;14.90;99.90;;;;;;5114542;28;20190;-41
2023/06/08 04:21:48;;;;;;;17.50;8.27;;;14.90;99.90;;;;;;5114821;28;20226;-41
2023/06/08 04:24:13;;;;;;;14.77;8.47;;;14.90;99.90;;;;;;5114589;28;20187;-42
2023/06/08 04:26:40;;;;;;;14.27;8.07;;;14.90;99.90;;;;;;5114830;28;20713;-43
2023/06/08 04:29:06;;;;;;;16.70;8.50;;;14.90;99.90;;;;;;5114495;28;20193;-43
2023/06/08 04:31:31;;;;;;;16.70;9.20;;;15.00;99.90;;;;;;5114331;28;20205;-42
2023/06/08 04:33:57;;;;;;;20.27;8.90;;;15.00;99.90;;;;;;5114293;28;20190;-44
2023/06/08 04:36:22;;;;;;;19.13;9.03;;;15.00;99.90;;;;;;5114395;28;20189;-42
2023/06/08 04:38:48;;;;;;;14.77;8.50;;;15.00;99.90;;;;;;5114474;28;20201;-40
2023/06/08 04:41:14;;;;;;;19.37;9.33;;;15.00;99.90;;;;;;5114235;28;20210;-43
2023/06/08 04:43:40;;;;;;;20.23;9.83;;;15.10;99.90;;;;;;5114349;28;20190;-44
2023/06/08 04:46:07;;;;;;;14.43;8.73;;;15.10;99.90;;;;;;5114673;28;20174;-42
2023/06/08 04:48:33;;;;;;;14.87;8.73;;;15.10;99.90;;;;;;5114770;28;20192;-45
2023/06/08 04:51:02;;;;;;;19.23;9.83;;;15.10;99.90;;;;;;5115272;28;20174;-43
2023/06/08 04:53:30;;;;;;;18.43;8.67;;;15.20;99.90;;;;;;5114739;28;20201;-43
2023/06/08 04:55:58;;;;;;;16.30;9.03;;;15.20;99.90;;;;;;5112014;28;20182;-42
2023/06/08 04:58:25;;;;;;;19.97;9.50;;;15.30;99.90;;;;;;5114396;28;20263;-43
2023/06/08 05:00:52;;;;;;;16.53;9.53;;;15.30;99.90;;;;;;5114190;28;20205;-43
2023/06/08 05:03:18;;;;;;;24.83;9.80;;;15.40;99.90;;;;;;5113926;28;20704;-43
2023/06/08 05:05:44;;;;;;;19.80;9.50;;;15.40;99.90;;;;;;5114334;28;20212;-42
2023/06/08 05:08:09;;;;;;;17.87;9.97;;;15.40;99.90;;;;;;5114001;28;20529;-43
2023/06/08 05:10:35;;;;;;;16.20;9.03;;;15.50;99.90;;;;;;5113918;28;20653;-41
2023/06/08 05:13:01;;;;;;;17.53;9.43;;;15.60;99.90;;;;;;5114243;28;20626;-43
2023/06/08 05:15:27;;;;;;;16.93;9.57;;;15.60;99.90;;;;;;5114192;28;20182;-44
2023/06/08 05:17:53;;;;;;;17.73;9.33;;;15.70;99.90;;;;;;5113938;28;20174;-43
2023/06/08 05:20:20;;;;;;;15.87;9.83;;;15.70;99.90;;;;;;5114283;28;20225;-45
2023/06/08 05:22:45;;;;;;;17.57;9.83;;;15.70;99.90;;;;;;5113897;28;20668;-42
2023/06/08 05:25:11;;;;;;;17.47;9.77;;;15.70;99.90;;;;;;5113783;28;20267;-43
2023/06/08 05:27:37;;;;;;;22.37;10.43;;;15.80;99.90;;;;;;5114076;28;20630;-41
2023/06/08 05:30:03;;;;;;;14.90;10.03;;;15.80;99.90;;;;;;5114049;28;20185;-40
2023/06/08 05:32:29;;;;;;;21.10;10.73;;;15.80;99.90;;;;;;5113645;28;20632;-43
2023/06/08 05:34:55;;;;;;;16.87;10.10;;;15.80;99.90;;;;;;5113626;28;20221;-41
2023/06/08 05:37:20;;;;;;;21.43;11.53;;;15.90;99.90;;;;;;5113786;28;20181;-44
2023/06/08 05:39:46;;;;;;;21.13;12.73;;;15.90;99.90;;;;;;5113633;28;20174;-43
2023/06/08 05:42:12;;;;;;;21.37;12.27;;;16.00;99.90;;;;;;5112293;28;20209;-43
2023/06/08 05:44:37;;;;;;;22.87;12.57;;;16.00;99.90;;;;;;5113522;28;20198;-40
2023/06/08 05:47:03;;;;;;;21.73;12.80;;;16.10;99.90;;;;;;5113571;28;20175;-42
2023/06/08 05:49:29;;;;;;;20.53;11.60;;;16.10;99.90;;;;;;5113731;28;20249;-41
2023/06/08 05:51:54;;;;;;;23.40;12.93;;;16.10;99.90;;;;;;5114313;28;20174;-44
2023/06/08 05:54:20;;;;;;;19.97;12.10;;;16.20;99.90;;;;;;5113894;28;20194;-43
2023/06/08 05:56:45;;;;;;;28.40;12.67;;;16.30;99.90;;;;;;5113598;28;20185;-42
2023/06/08 05:59:11;;;;;;;19.93;11.20;;;16.30;99.90;;;;;;5113817;28;20583;-43
2023/06/08 06:01:37;;;;;;;17.47;10.60;;;16.40;99.90;;;;;;5113304;28;20560;-42
2023/06/08 06:04:02;;;;;;;15.60;10.20;;;16.50;99.90;;;;;;5113739;28;20202;-43
2023/06/08 06:06:29;;;;;;;16.30;10.43;;;16.60;99.90;;;;;;5115207;28;20175;-43
2023/06/08 06:08:54;;;;;;;14.63;9.67;;;16.70;99.90;;;;;;5117500;28;20190;-44
2023/06/08 06:11:20;;;;;;;17.23;10.87;;;16.80;99.90;;;;;;5117291;28;20217;-43
2023/06/08 06:13:46;;;;;;;20.57;9.93;;;17.00;99.90;;;;;;5117407;28;20210;-43
2023/06/08 06:16:11;;;;;;;19.10;9.97;;;17.10;99.90;;;;;;5117141;28;20210;-42
2023/06/08 06:18:37;;;;;;;16.87;9.97;;;17.20;99.90;;;;;;5117815;28;20231;-43
2023/06/08 06:21:02;;;;;;;21.43;10.20;;;17.20;99.90;;;;;;5115798;28;20694;-43
2023/06/08 06:23:28;;;;;;;18.43;9.60;;;17.30;99.90;;;;;;5115688;28;20670;-42
2023/06/08 06:25:54;;;;;;;17.87;10.50;;;17.30;99.90;;;;;;5117262;28;20182;-43
2023/06/08 06:28:19;;;;;;;18.10;9.03;;;17.50;99.90;;;;;;5116877;28;20167;-45
2023/06/08 06:30:45;;;;;;;14.63;8.77;;;17.50;99.90;;;;;;5116867;28;20213;-43
2023/06/08 06:33:10;;;;;;;15.00;9.13;;;17.60;99.90;;;;;;5116646;28;20181;-43
2023/06/08 06:35:36;;;;;;;15.97;8.40;;;17.60;99.90;;;;;;5116776;28;20174;-43
2023/06/08 06:38:01;;;;;;;17.17;9.07;;;17.80;99.90;;;;;;5116526;28;20351;-42
2023/06/08 06:40:27;;;;;;;15.97;9.43;;;17.90;99.90;;;;;;5116763;28;20666;-42
2023/06/08 06:42:52;;;;;;;18.77;8.97;;;18.00;99.90;;;;;;5115544;28;20623;-41
2023/06/08 06:45:18;;;;;;;15.20;8.50;;;18.10;99.90;;;;;;5116558;28;20229;-42
2023/06/08 06:47:43;;;;;;;19.70;8.90;;;18.20;99.90;;;;;;5115254;28;20235;-43
2023/06/08 06:50:09;;;;;;;15.20;8.30;;;18.30;99.90;;;;;;5116741;28;20698;-43
2023/06/08 06:52:35;;;;;;;18.20;8.73;;;18.50;99.90;;;;;;5116474;28;20654;-42
2023/06/08 06:55:04;;;;;;;14.83;8.33;;;18.60;99.90;;;;;;5116325;28;20281;-42
2023/06/08 06:57:31;;;;;;;12.87;8.13;;;18.70;99.90;;;;;;5116362;28;20178;-41
2023/06/08 06:59:57;;;;;;;13.10;7.97;;;18.80;99.90;;;;;;5116496;28;20163;-42
2023/06/08 07:02:23;;;;;;;13.47;8.07;;;18.90;99.90;;;;;;5116101;28;20188;-43
2023/06/08 07:04:52;;;;;;;16.67;8.40;;;19.00;99.90;;;;;;5116055;28;20194;-43
2023/06/08 07:07:18;;;;;;;13.17;8.10;;;19.00;99.90;;;;;;5116318;28;20173;-42
2023/06/08 07:09:44;;;;;;;11.70;7.77;;;19.10;99.90;;;;;;5116282;28;20178;-45
2023/06/08 07:12:10;;;;;;;15.97;7.83;;;19.10;99.90;;;;;;5116044;28;20585;-42
2023/06/08 07:14:35;;;;;;;14.67;7.57;;;19.20;99.90;;;;;;5115977;28;20230;-43
2023/06/08 07:17:01;;;;;;;13.57;7.20;;;19.20;99.90;;;;;;5115558;28;20178;-43
2023/06/08 07:19:26;;;;;;;20.23;7.83;;;19.30;99.90;;;;;;5115302;28;20185;-43
2023/06/08 07:21:52;;;;;;;11.77;7.33;;;19.40;99.90;;;;;;5115970;28;20236;-44
2023/06/08 07:24:18;;;;;;;11.27;7.23;;;19.50;99.90;;;;;;5116020;28;20277;-45
2023/06/08 07:26:45;;;;;;;14.20;7.03;;;19.60;99.90;;;;;;5116009;28;20201;-44
2023/06/08 07:29:11;;;;;;;13.37;6.93;;;19.80;99.90;;;;;;5115636;28;20170;-42
2023/06/08 07:31:39;;;;;;;13.03;7.43;;;19.90;99.90;;;;;;5115676;28;20270;-44
2023/06/08 07:34:06;;;;;;;11.23;6.60;;;20.00;99.90;;;;;;5115492;28;20198;-44
2023/06/08 07:36:32;;;;;;;13.80;6.97;;;20.20;99.90;;;;;;5115402;28;20198;-43
2023/06/08 07:38:58;;;;;;;10.73;7.30;;;20.30;99.90;;;;;;5115777;28;20706;-42
2023/06/08 07:41:27;;;;;;;13.60;7.43;;;20.30;99.90;;;;;;5115619;28;20210;-41
2023/06/08 07:43:52;;;;;;;11.70;7.10;;;20.30;99.90;;;;;;5115269;28;20566;-44
2023/06/08 07:46:18;;;;;;;10.73;7.03;;;20.40;99.90;;;;;;5115442;28;20173;-44
2023/06/08 07:48:43;;;;;;;12.37;6.83;;;20.50;99.90;;;;;;5115392;28;20535;-43
2023/06/08 07:51:09;;;;;;;10.87;7.17;;;20.50;99.90;;;;;;5115705;28;20186;-43
2023/06/08 07:53:38;;;;;;;10.53;7.43;;;20.50;99.90;;;;;;5115906;28;20198;-44
2023/06/08 07:56:05;;;;;;;16.27;7.30;;;20.50;99.90;;;;;;5115302;28;20174;-44
2023/06/08 07:58:32;;;;;;;9.70;6.77;;;20.50;99.90;;;;;;5115686;28;20178;-44
2023/06/08 08:00:58;;;;;;;13.70;7.40;;;20.70;99.90;;;;;;5114986;28;20190;-44
2023/06/08 08:03:23;;;;;;;10.90;6.70;;;20.80;99.90;;;;;;5114802;28;20223;-43
2023/06/08 08:05:49;;;;;;;13.67;7.33;;;20.80;99.90;;;;;;5115607;28;20178;-44
2023/06/08 08:08:16;;;;;;;9.77;6.60;;;20.90;99.90;;;;;;5115024;28;20178;-43
2023/06/08 08:10:41;;;;;;;9.33;6.73;;;21.00;99.90;;;;;;5115008;28;20190;-44
2023/06/08 08:13:08;;;;;;;11.63;6.43;;;21.10;99.90;;;;;;5114652;28;20246;-45
2023/06/08 08:15:34;;;;;;;9.70;6.20;;;21.10;99.90;;;;;;5114903;28;20193;-45
2023/06/08 08:18:00;;;;;;;10.70;6.43;;;21.10;99.90;;;;;;5114642;28;20210;-45
2023/06/08 08:20:26;;;;;;;11.87;6.47;;;21.10;99.90;;;;;;5114482;28;20221;-45
2023/06/08 08:22:51;;;;;;;9.40;5.97;;;21.40;99.90;;;;;;5114812;28;20584;-45
2023/06/08 08:25:17;;;;;;;10.87;6.13;;;21.50;99.90;;;;;;5114391;28;20194;-42
2023/06/08 08:27:42;;;;;;;10.87;6.93;;;21.60;99.90;;;;;;5113453;28;20238;-45
2023/06/08 08:30:08;;;;;;;9.20;6.50;;;21.70;99.90;;;;;;5114545;28;20178;-44
2023/06/08 08:32:34;;;;;;;8.90;6.57;;;21.70;99.90;;;;;;5114507;28;20257;-43
2023/06/08 08:35:01;;;;;;;9.90;6.17;;;21.80;99.90;;;;;;5114528;28;20209;-45
2023/06/08 08:37:26;;;;;;;11.30;6.23;;;21.90;99.90;;;;;;5112871;28;20285;-45
2023/06/08 08:39:52;;;;;;;9.20;5.93;;;22.00;99.90;;;;;;5114296;28;20258;-44
2023/06/08 08:42:29;;;;;;;10.20;6.60;;;22.10;99.90;;;;;;5114653;28;20186;-43
2023/06/08 08:44:56;;;;;;;9.10;6.20;;;22.20;99.90;;;;;;5114946;28;20681;-44
2023/06/08 08:47:28;;;;;;;11.83;6.07;;;22.00;99.90;;;;;;5114149;28;20684;-43
2023/06/08 08:50:06;;;;;;;10.77;6.60;;;22.00;99.90;;;;;;5114120;28;20513;-45
2023/06/08 08:52:33;;;;;;;9.10;5.93;;;22.20;99.90;;;;;;5114283;28;20219;-45
2023/06/08 08:55:00;;;;;;;8.37;5.83;;;22.50;99.90;;;;;;5114273;28;20225;-44
2023/06/08 08:57:30;;;;;;;8.37;5.77;;;22.70;99.90;;;;;;5114216;28;20190;-45
2023/06/08 08:59:56;;;;;;;12.07;6.60;;;22.90;99.90;;;;;;5113927;28;20634;-45
2023/06/08 09:02:22;;;;;;;11.60;6.50;;;23.10;99.90;;;;;;5113845;28;20670;-44
2023/06/08 09:04:48;;;;;;;7.80;6.40;;;23.20;99.90;;;;;;5114165;28;20602;-46
2023/06/08 09:07:24;;;;;;;9.43;6.47;;;23.30;99.90;;;;;;5114077;28;20185;-46
2023/06/08 09:10:16;;;;;;;9.67;6.70;;;23.30;99.90;;;;;;5113887;28;20154;-45
2023/06/08 09:12:43;;;;;;;10.47;6.47;;;23.30;99.90;;;;;;5113809;28;20231;-43
2023/06/08 09:15:11;;;;;;;9.37;7.40;;;23.30;99.90;;;;;;5113734;28;20197;-45
2023/06/08 09:17:38;;;;;;;13.83;7.00;;;23.40;99.90;;;;;;5113967;28;20170;-46
2023/06/08 09:20:08;;;;;;;9.63;6.67;;;23.30;99.90;;;;;;5113885;28;20182;-45
2023/06/08 09:22:36;;;;;;;9.60;6.03;;;23.30;99.90;;;;;;5113994;28;20166;-46
2023/06/08 09:25:05;;;;;;;11.47;6.53;;;23.30;99.90;;;;;;5113855;28;20202;-45
2023/06/08 09:27:31;;;;;;;9.03;6.17;;;23.40;99.90;;;;;;5113780;28;20175;-46
2023/06/08 09:29:57;;;;;;;12.00;5.87;;;23.50;99.90;;;;;;5113911;28;20178;-45
2023/06/08 09:32:31;;;;;;;9.83;5.87;;;23.50;99.90;;;;;;5113519;28;20238;-45
2023/06/08 09:35:01;;;;;;;8.97;6.83;;;23.60;99.90;;;;;;5113797;28;20194;-45
2023/06/08 09:37:37;;;;;;;13.53;7.20;;;23.80;99.90;;;;;;5113545;28;20254;-45
2023/06/08 09:40:04;;;;;;;14.07;6.20;;;24.00;99.90;;;;;;5113564;28;20286;-45
2023/06/08 09:42:46;;;;;;;8.97;6.37;;;24.00;99.90;;;;;;5117466;28;20163;-46
2023/06/08 09:45:14;;;;;;;13.00;7.63;;;24.20;99.90;;;;;;5117870;28;20198;-46
2023/06/08 09:47:40;;;;;;;10.80;6.90;;;24.20;99.90;;;;;;5117693;28;20650;-47
2023/06/08 09:50:08;;;;;;;13.23;7.50;;;24.20;99.90;;;;;;5117495;28;20204;-44
2023/06/08 09:52:36;;;;;;;10.13;6.93;;;24.20;99.90;;;;;;5117680;28;20182;-45
2023/06/08 09:55:02;;;;;;;10.97;6.50;;;24.10;99.90;;;;;;5117496;28;20662;-45
2023/06/08 09:57:36;;;;;;;11.67;7.47;;;24.00;99.90;;;;;;5117571;28;20193;-44
2023/06/08 10:00:20;;;;;;;9.47;6.70;;;23.90;99.90;;;;;;5117678;28;20169;-46
2023/06/08 10:03:14;;;;;;;10.20;7.60;;;24.00;99.90;;;;;;5117498;28;20166;-45
2023/06/08 10:05:45;;;;;;;12.40;6.67;;;23.90;99.90;;;;;;5117544;28;20562;-46
2023/06/08 10:08:13;;;;;;;8.90;6.73;;;23.90;99.90;;;;;;5117069;28;20622;-44
2023/06/08 10:10:41;;;;;;;9.57;6.80;;;24.00;99.90;;;;;;5117080;28;20177;-45
2023/06/08 10:13:09;;;;;;;9.30;6.77;;;24.10;99.90;;;;;;5117213;28;20588;-43
2023/06/08 10:15:36;;;;;;;9.50;7.00;;;24.20;99.90;;;;;;5117194;28;20166;-44
2023/06/08 10:18:02;;;;;;;9.90;7.40;;;24.20;99.90;;;;;;5116905;28;20178;-44
2023/06/08 10:20:30;;;;;;;11.77;7.80;;;24.30;99.90;;;;;;5116803;28;20194;-43
2023/06/08 10:22:59;;;;;;;8.10;6.90;;;24.20;99.90;;;;;;5117090;28;20184;-45
2023/06/08 10:25:30;;;;;;;10.43;8.60;;;24.30;99.90;;;;;;5116784;28;20206;-45
2023/06/08 10:28:06;;;;;;;12.20;8.07;;;24.40;99.90;;;;;;5117036;28;20241;-44
2023/06/08 10:30:39;;;;;;;11.48;8.13;;;24.30;99.90;;;;;;5116841;28;20163;-45
2023/06/08 10:33:15;;;;;;;8.97;7.90;;;24.40;99.90;;;;;;5116643;28;20246;-44
2023/06/08 10:35:43;;;;;;;12.82;8.50;;;24.30;99.90;;;;;;5116969;28;20161;-46
2023/06/08 10:38:13;;;;;;;11.02;7.72;;;24.40;99.90;;;;;;5116661;28;20214;-44
2023/06/08 10:40:47;;;;;;;9.85;7.80;;;24.50;99.90;;;;;;5116421;28;20243;-44
2023/06/08 10:43:13;;;;;;;12.10;8.38;;;24.70;99.90;;;;;;5116734;28;20646;-45
2023/06/08 10:45:44;;;;;;;8.45;6.15;;;24.80;99.90;;;;;;5116670;28;20261;-46
2023/06/08 10:48:18;;;;;;;7.30;6.53;;;24.80;99.90;;;;;;5116851;28;20170;-44
2023/06/08 10:50:44;;;;;;;10.93;6.95;;;24.80;99.90;;;;;;5116349;28;20177;-44
2023/06/08 10:53:10;;;;;;;12.32;7.82;;;25.00;99.90;;;;;;5115198;28;20573;-45
2023/06/08 10:55:36;;;;;;;12.85;7.40;;;25.00;99.90;;;;;;5116409;28;20202;-43
2023/06/08 10:58:15;;;;;;;11.98;7.20;;;25.00;99.90;;;;;;5116510;28;20173;-44
2023/06/08 11:00:42;;;;;;;9.30;7.28;;;24.90;99.90;;;;;;5116730;28;20186;-42
2023/06/08 11:03:14;;;;;;;9.48;6.68;;;25.00;99.90;;;;;;5116027;28;20258;-45
2023/06/08 11:05:43;;;;;;;10.55;5.85;;;25.20;99.90;;;;;;5116268;28;20633;-45
2023/06/08 11:08:09;;;;;;;8.32;6.72;;;25.50;99.90;;;;;;5116248;28;20261;-44
2023/06/08 11:10:39;;;;;;;11.15;6.57;;;25.70;99.90;;;;;;5116214;28;20227;-44
2023/06/08 11:13:12;;;;;;;11.82;7.60;;;25.80;99.90;;;;;;5115788;28;20542;-46
2023/06/08 11:15:42;;;;;;;10.15;6.97;;;25.80;99.90;;;;;;5116171;28;20159;-45
2023/06/08 11:18:09;;;;;;;12.30;7.55;;;25.60;99.90;;;;;;5115780;28;20220;-45
2023/06/08 11:20:37;;;;;;;11.38;6.40;;;25.50;99.90;;;;;;5116195;28;20714;-46
2023/06/08 11:23:14;;;;;;;8.90;6.72;;;25.50;99.90;;;;;;5115912;28;20186;-45
2023/06/08 11:25:42;;;;;;;11.85;7.28;;;25.50;99.90;;;;;;5115896;28;20193;-44
2023/06/08 11:28:11;;;;;;;13.05;7.35;;;25.50;99.90;;;;;;5115918;28;20258;-47
2023/06/08 11:30:37;;;;;;;10.45;7.18;;;25.70;99.90;;;;;;5115759;28;20182;-45
2023/06/08 11:33:05;;;;;;;10.52;6.20;;;25.70;99.90;;;;;;5115727;28;20174;-43
2023/06/08 11:35:31;;;;;;;6.88;5.88;;;25.80;99.90;;;;;;5115738;28;20217;-46
2023/06/08 11:38:01;;;;;;;14.18;7.30;;;25.90;99.90;;;;;;5115513;28;20270;-45
2023/06/08 11:40:28;;;;;;;8.50;6.93;;;26.10;99.90;;;;;;5115539;28;20178;-45
2023/06/08 11:42:55;;;;;;;8.05;7.15;;;26.10;99.90;;;;;;5115321;28;20241;-46
2023/06/08 11:45:22;;;;;;;7.95;6.45;;;26.00;99.90;;;;;;5115210;28;20186;-46
2023/06/08 11:47:47;;;;;;;9.32;6.20;;;25.90;99.90;;;;;;5115223;28;20223;-46
2023/06/08 11:50:14;;;;;;;12.63;6.88;;;26.20;99.90;;;;;;5115195;28;20202;-45
2023/06/08 11:52:41;;;;;;;8.52;6.50;;;26.40;99.90;;;;;;5115028;28;20184;-45
2023/06/08 11:55:17;;;;;;;11.65;7.25;;;26.50;99.90;;;;;;5114918;28;20247;-43
2023/06/08 11:57:53;;;;;;;10.15;7.03;;;26.60;99.90;;;;;;5115188;28;20164;-47
2023/06/08 12:00:24;;;;;;;12.05;6.55;;;26.60;99.90;;;;;;5115472;28;20158;-47
2023/06/08 12:02:51;;;;;;;10.18;6.47;;;26.40;99.90;;;;;;5115160;28;20182;-46
2023/06/08 12:05:30;;;;;;;8.27;6.40;;;26.50;99.90;;;;;;5114375;28;20194;-44
2023/06/08 12:08:04;;;;;;;10.40;7.25;;;26.70;99.90;;;;;;5114752;28;20158;-45
2023/06/08 12:10:39;;;;;;;9.73;7.35;;;26.70;99.90;;;;;;5115566;28;20524;-46
2023/06/08 12:13:10;;;;;;;10.85;7.35;;;26.60;99.90;;;;;;5115016;28;20226;-45
2023/06/08 12:15:44;;;;;;;9.63;6.18;;;26.40;99.90;;;;;;5114681;28;20171;-45
2023/06/08 12:18:16;;;;;;;10.40;6.47;;;26.40;99.90;;;;;;5114940;28;20161;-46
2023/06/08 12:20:42;;;;;;;10.82;7.55;;;26.50;99.90;;;;;;5114481;28;20198;-46
2023/06/08 12:23:08;;;;;;;9.45;6.85;;;26.70;99.90;;;;;;5114734;28;20208;-46
2023/06/08 12:25:35;;;;;;;9.93;6.22;;;26.80;99.90;;;;;;5114723;28;20174;-44
2023/06/08 12:28:01;;;;;;;9.02;6.68;;;26.90;99.90;;;;;;5114735;28;20209;-46
2023/06/08 12:30:27;;;;;;;7.18;6.07;;;27.10;99.90;;;;;;5114378;28;20638;-45
2023/06/08 12:32:53;;;;;;;9.60;6.75;;;27.20;99.90;;;;;;5114562;28;20182;-46
2023/06/08 12:35:21;;;;;;;7.68;5.72;;;27.40;99.90;;;;;;5114514;28;20725;-46
2023/06/08 12:37:49;;;;;;;8.77;6.22;;;27.40;99.90;;;;;;5114277;28;20194;-44
2023/06/08 12:40:18;;;;;;;8.15;6.18;;;27.50;99.90;;;;;;5114463;28;20182;-46
2023/06/08 12:42:49;;;;;;;9.45;6.50;;;27.60;99.90;;;;;;5114203;28;20196;-45